RJDO weather

Ojika Airport
Ojika, Nagasaki Prefecture, Japan

Public forecast

Using degrees Celsius for public forecast. Weather courtesy of forecast.io.

METAR (pilot weather report)

Report is more than 6 hours old.

Closest report is Fukue Airport, 34.1 nm (63.1 km) SSW. Retrieved 2019/09/16 10:00 UTC (9 hours ago):

RJFE 161000Z 01017KT 340V040 9999 FEW015 SCT025 24/19 Q1007

TAF (pilot weather forecast)

Closest forecast is Nagasaki Airport, 44.6 nm (82.6 km) ESE. Retrieved 2019/09/16 18:00 UTC (1 hour ago):

TAF RJFU 161705Z 1618/1800 02009KT 9999 FEW030